Terminal Aerodrome Forecast
Issued by NWS

Home | Current Version | Previous Version | Graphics & Text | Print | Product List | Glossary On
Versions: 1 2 3 4 5 6 7 8 9 10 11 12 13 14 15 16 17 18 19 20 21 22 23 24
000
FTUS43 KOAX 290531 CCA
TAFCDR
TAF COR
KCDR 290531Z 2906/3006 VRB03KT P6SM BKN014 OVC035
     FM291600 34006KT P6SM BKN015 OVC025
     FM291800 02006KT P6SM BKN025 BKN050
     FM292200 04007KT P6SM FEW120 SCT250=

USA.gov is the U.S. government's official web portal to all federal, state and local government web resources and services.